createdAt,value
2023-04-02T00:02:22.626Z,77.34
2023-04-02T00:05:31.523Z,77.45
2023-04-02T00:08:39.030Z,76.99
2023-04-02T00:11:45.512Z,77.21
2023-04-02T00:14:58.751Z,77.64
2023-04-02T00:18:02.305Z,78.63
2023-04-02T00:21:12.751Z,79.06
2023-04-02T00:24:21.082Z,79.22
2023-04-02T00:27:23.801Z,79.43
2023-04-02T00:30:26.779Z,79.52
2023-04-02T00:33:31.668Z,79.02
2023-04-02T00:36:34.736Z,79.86
2023-04-02T00:39:41.605Z,80.81
2023-04-02T00:42:44.869Z,80.42
2023-04-02T00:45:51.228Z,80.34
2023-04-02T00:49:10.764Z,80.55
2023-04-02T00:52:16.649Z,80.65
2023-04-02T00:55:26.911Z,80.98
2023-04-02T00:58:34.901Z,81.36
2023-04-02T01:01:42.695Z,81.96
2023-04-02T01:04:55.616Z,81.71
2023-04-02T01:08:04.602Z,81.70
2023-04-02T01:11:44.170Z,81.69
2023-04-02T01:14:49.941Z,81.46
2023-04-02T01:18:20.785Z,81.42
2023-04-02T01:21:55.415Z,81.57
2023-04-02T01:24:58.408Z,81.97
2023-04-02T01:28:09.574Z,81.59
2023-04-02T01:31:12.337Z,81.14
2023-04-02T01:34:18.163Z,81.19
2023-04-02T01:37:36.744Z,81.78
2023-04-02T01:41:10.765Z,81.10
2023-04-02T01:44:24.559Z,80.77
2023-04-02T01:47:29.031Z,81.27
2023-04-02T01:50:39.685Z,80.83
2023-04-02T01:53:42.552Z,80.65
2023-04-02T01:56:47.186Z,80.91
2023-04-02T01:59:50.276Z,80.69
2023-04-02T02:02:53.067Z,80.14
2023-04-02T02:05:57.013Z,80.63
2023-04-02T02:09:03.814Z,80.69
2023-04-02T02:12:07.297Z,80.98
2023-04-02T02:15:17.363Z,80.67
2023-04-02T02:18:23.586Z,80.35
2023-04-02T02:21:39.170Z,81.31
2023-04-02T02:24:42.270Z,81.13
2023-04-02T02:27:55.837Z,80.94
2023-04-02T02:31:01.511Z,81.13
2023-04-02T02:34:14.775Z,81.09
2023-04-02T02:37:23.247Z,80.75
2023-04-02T02:40:40.977Z,80.90
2023-04-02T02:43:52.087Z,81.67
2023-04-02T02:47:06.821Z,80.95
2023-04-02T02:50:18.146Z,81.53
2023-04-02T02:53:24.096Z,81.91
2023-04-02T02:56:28.512Z,81.38
2023-04-02T02:59:32.236Z,81.50
2023-04-02T03:02:37.572Z,81.59
2023-04-02T03:05:41.678Z,81.43
2023-04-02T03:08:50.826Z,81.86
2023-04-02T03:12:12.856Z,81.67
2023-04-02T03:15:26.636Z,81.55
2023-04-02T03:18:38.553Z,81.96
2023-04-02T03:21:48.698Z,82.11
2023-04-02T03:24:59.844Z,81.91
2023-04-02T03:28:06.681Z,81.79
2023-04-02T03:31:21.316Z,81.60
2023-04-02T03:34:29.663Z,82.09
2023-04-02T03:37:48.523Z,82.59
2023-04-02T03:41:15.928Z,82.43
2023-04-02T03:44:24.466Z,82.90
2023-04-02T03:47:41.599Z,83.70
2023-04-02T03:50:50.701Z,82.87
2023-04-02T03:53:53.949Z,82.80
2023-04-02T03:56:57.154Z,83.53
2023-04-02T04:00:26.059Z,83.63
2023-04-02T04:03:41.099Z,83.64
2023-04-02T04:06:45.484Z,83.77
2023-04-02T04:09:51.941Z,83.87
2023-04-02T04:13:01.126Z,84.02
2023-04-02T04:16:25.426Z,84.13
2023-04-02T04:19:55.569Z,84.15
2023-04-02T04:23:10.732Z,84.38
2023-04-02T04:26:53.554Z,84.01
2023-04-02T04:30:24.560Z,84.20
2023-04-02T04:33:40.348Z,84.46
2023-04-02T04:36:54.521Z,85.17
2023-04-02T04:40:11.942Z,84.68
2023-04-02T04:43:19.476Z,84.61
2023-04-02T04:46:32.946Z,84.64
2023-04-02T04:49:41.899Z,85.24
2023-04-02T04:52:45.092Z,85.15
2023-04-02T04:55:53.472Z,84.96
2023-04-02T04:59:19.285Z,84.42
2023-04-02T05:02:32.927Z,85.38
2023-04-02T05:05:40.748Z,85.15
2023-04-02T05:08:47.673Z,84.96
2023-04-02T05:11:55.867Z,85.11
2023-04-02T05:15:04.529Z,85.62
2023-04-02T05:18:19.798Z,85.21
2023-04-02T05:21:44.763Z,84.30
2023-04-02T05:24:56.332Z,84.16
2023-04-02T05:28:14.966Z,84.92
2023-04-02T05:31:26.247Z,84.32
2023-04-02T05:34:37.177Z,84.93
2023-04-02T05:37:40.684Z,83.51
2023-04-02T05:40:46.187Z,84.12
2023-04-02T05:43:50.597Z,83.83
2023-04-02T05:46:59.646Z,83.41
2023-04-02T05:50:09.524Z,83.21
2023-04-02T05:53:17.884Z,83.38
2023-04-02T05:56:44.066Z,83.16
2023-04-02T05:59:51.025Z,82.35
2023-04-02T06:03:07.532Z,82.17
2023-04-02T06:06:19.102Z,81.03
2023-04-02T06:09:34.142Z,80.40
2023-04-02T06:13:03.406Z,80.15
2023-04-02T06:16:06.997Z,78.72
2023-04-02T06:19:21.073Z,78.79
2023-04-02T06:22:37.072Z,78.83
2023-04-02T06:25:53.297Z,78.54
2023-04-02T06:29:24.709Z,77.27
2023-04-02T06:32:29.823Z,76.14
2023-04-02T06:35:34.622Z,75.36
2023-04-02T06:38:40.975Z,74.99
2023-04-02T06:41:46.792Z,74.64
2023-04-02T06:44:51.483Z,73.29
2023-04-02T06:47:55.602Z,73.99
2023-04-02T06:51:07.285Z,73.99
2023-04-02T06:54:14.986Z,73.41
2023-04-02T06:57:18.302Z,73.42
2023-04-02T07:00:32.954Z,72.74
2023-04-02T07:03:36.428Z,72.34
2023-04-02T07:06:39.933Z,71.66
2023-04-02T07:09:42.958Z,70.57
2023-04-02T07:12:47.261Z,70.08
2023-04-02T07:15:55.341Z,69.53
2023-04-02T07:18:58.908Z,68.78
2023-04-02T07:22:02.454Z,69.27
2023-04-02T07:25:06.433Z,69.11
2023-04-02T07:28:09.283Z,69.08
2023-04-02T07:31:24.323Z,68.05
2023-04-02T07:34:27.252Z,66.99
2023-04-02T07:37:32.721Z,65.93
2023-04-02T07:40:35.796Z,65.70
2023-04-02T07:43:39.185Z,66.42
2023-04-02T07:46:42.256Z,65.07
2023-04-02T07:49:44.849Z,65.62
2023-04-02T07:52:47.763Z,65.28
2023-04-02T07:55:52.935Z,64.96
2023-04-02T07:58:55.815Z,64.01
2023-04-02T08:01:58.842Z,64.25
2023-04-02T08:05:04.533Z,63.17
2023-04-02T08:08:07.134Z,63.04
2023-04-02T08:11:10.509Z,63.83
2023-04-02T08:14:13.334Z,63.14
2023-04-02T08:17:16.557Z,63.54
2023-04-02T08:20:21.261Z,63.07
2023-04-02T08:23:24.506Z,62.27
2023-04-02T08:26:27.334Z,62.48
2023-04-02T08:29:32.278Z,62.12
2023-04-02T08:32:36.866Z,62.64
2023-04-02T08:35:40.006Z,64.12
2023-04-02T08:38:43.342Z,63.17
2023-04-02T08:41:58.688Z,62.03
2023-04-02T08:45:40.699Z,63.61
2023-04-02T08:48:46.939Z,61.61
2023-04-02T08:51:49.749Z,62.26
2023-04-02T08:54:53.590Z,60.65
2023-04-02T08:58:15.237Z,60.23
2023-04-02T09:01:36.217Z,60.58
2023-04-02T09:04:40.983Z,59.16
2023-04-02T09:07:43.891Z,59.73
2023-04-02T09:11:06.845Z,58.89
2023-04-02T09:14:17.455Z,60.03
2023-04-02T09:17:22.984Z,60.26
2023-04-02T09:20:26.733Z,60.09
2023-04-02T09:23:29.271Z,58.74
2023-04-02T09:26:33.289Z,60.28
2023-04-02T09:29:41.431Z,60.42
2023-04-02T09:32:53.353Z,60.10
2023-04-02T09:35:57.886Z,58.74
2023-04-02T09:39:01.537Z,59.31
2023-04-02T09:42:08.838Z,61.56
2023-04-02T09:45:23.287Z,58.92
2023-04-02T09:48:32.033Z,59.84
2023-04-02T09:51:36.588Z,59.25
2023-04-02T09:54:41.651Z,59.72
2023-04-02T09:57:46.254Z,58.45
2023-04-02T10:00:53.384Z,59.11
2023-04-02T10:03:56.951Z,60.07
2023-04-02T10:06:59.493Z,59.07
2023-04-02T10:10:21.226Z,59.82
2023-04-02T10:13:30.726Z,59.17
2023-04-02T10:16:43.850Z,60.38
2023-04-02T10:20:02.631Z,59.58
2023-04-02T10:23:06.562Z,58.34
2023-04-02T10:26:17.866Z,59.51
2023-04-02T10:29:29.846Z,59.53
2023-04-02T10:32:40.536Z,58.88
2023-04-02T10:36:05.349Z,57.80
2023-04-02T10:39:21.861Z,59.30
2023-04-02T10:42:32.850Z,57.20
2023-04-02T10:45:41.646Z,57.92
2023-04-02T10:49:05.479Z,58.25
2023-04-02T10:52:21.466Z,57.16
2023-04-02T10:55:26.519Z,56.36
2023-04-02T10:58:34.979Z,56.90
2023-04-02T11:01:39.992Z,54.94
2023-04-02T11:04:45.709Z,55.10
2023-04-02T11:08:15.972Z,55.00
2023-04-02T11:11:22.650Z,54.75
2023-04-02T11:14:27.787Z,53.85
2023-04-02T11:17:30.378Z,53.98
2023-04-02T11:20:48.684Z,52.97
2023-04-02T11:24:00.396Z,51.27
2023-04-02T11:27:14.472Z,55.22
2023-04-02T11:30:25.820Z,52.90
2023-04-02T11:33:38.402Z,51.57
2023-04-02T11:36:52.765Z,50.16
2023-04-02T11:39:58.255Z,50.69
2023-04-02T11:43:32.979Z,50.14
2023-04-02T11:46:40.182Z,51.10
2023-04-02T11:49:55.071Z,47.36
2023-04-02T11:53:13.602Z,51.07
2023-04-02T11:56:41.253Z,47.74
2023-04-02T12:00:18.103Z,47.08
2023-04-02T12:03:46.318Z,47.86
2023-04-02T12:07:07.199Z,46.75
2023-04-02T12:10:34.504Z,46.01
2023-04-02T12:13:42.175Z,46.90
2023-04-02T12:16:45.065Z,46.71
2023-04-02T12:19:49.900Z,47.47
2023-04-02T12:22:54.604Z,45.94
2023-04-02T12:26:08.410Z,45.58
2023-04-02T12:29:23.167Z,46.87
2023-04-02T12:32:30.372Z,47.64
2023-04-02T12:35:35.066Z,48.67
2023-04-02T12:38:48.634Z,48.84
2023-04-02T12:41:51.956Z,48.18
2023-04-02T12:44:54.611Z,48.37
2023-04-02T12:47:58.443Z,49.38
2023-04-02T12:51:01.824Z,49.43
2023-04-02T12:54:04.974Z,49.13
2023-04-02T12:57:25.905Z,50.16
2023-04-02T13:00:30.702Z,49.94
2023-04-02T13:03:33.808Z,50.93
2023-04-02T13:06:37.286Z,51.00
2023-04-02T13:09:50.031Z,49.07
2023-04-02T13:13:01.701Z,48.39
2023-04-02T13:16:19.719Z,48.44
2023-04-02T13:19:25.548Z,48.36
2023-04-02T13:22:31.940Z,48.22
2023-04-02T13:25:36.465Z,49.40
2023-04-02T13:28:39.398Z,47.40
2023-04-02T13:31:42.419Z,47.64
2023-04-02T13:34:45.279Z,47.49
2023-04-02T13:37:49.034Z,48.61
2023-04-02T13:40:51.748Z,48.49
2023-04-02T13:43:55.879Z,46.34
2023-04-02T13:46:59.411Z,46.40
2023-04-02T13:50:02.495Z,44.80
2023-04-02T13:53:09.672Z,46.08
2023-04-02T13:56:13.353Z,45.45
2023-04-02T13:59:16.363Z,45.26
2023-04-02T14:02:22.995Z,46.19
2023-04-02T14:05:38.788Z,46.07
2023-04-02T14:08:57.049Z,46.24
2023-04-02T14:12:15.437Z,46.12
2023-04-02T14:15:33.278Z,43.97
2023-04-02T14:18:49.712Z,44.32
2023-04-02T14:22:21.040Z,45.21
2023-04-02T14:25:46.240Z,45.14
2023-04-02T14:29:14.057Z,43.56
2023-04-02T14:32:23.018Z,44.50
2023-04-02T14:35:34.152Z,43.20
2023-04-02T14:38:43.244Z,43.32
2023-04-02T14:41:58.487Z,44.72
2023-04-02T14:45:05.926Z,44.88
2023-04-02T14:48:50.304Z,47.61
2023-04-02T14:52:11.670Z,46.03
2023-04-02T14:55:36.297Z,47.27
2023-04-02T14:58:43.012Z,50.15
2023-04-02T15:01:48.233Z,52.43
2023-04-02T15:05:01.217Z,54.23
2023-04-02T15:08:19.843Z,55.81
2023-04-02T15:11:30.429Z,55.67
2023-04-02T15:14:36.925Z,57.49
2023-04-02T15:17:40.003Z,57.37
2023-04-02T15:21:06.716Z,56.90
2023-04-02T15:24:18.698Z,57.38
2023-04-02T15:27:39.735Z,56.60
2023-04-02T15:30:43.775Z,56.88
2023-04-02T15:33:49.362Z,58.18
2023-04-02T15:37:00.993Z,60.25
2023-04-02T15:40:20.849Z,62.18
2023-04-02T15:43:29.528Z,66.95
2023-04-02T15:46:56.162Z,68.42
2023-04-02T15:50:14.432Z,71.19
2023-04-02T15:53:16.838Z,73.50
2023-04-02T15:56:43.235Z,73.30
2023-04-02T16:00:09.775Z,74.21
2023-04-02T16:03:47.985Z,73.88
2023-04-02T16:06:57.379Z,74.25
2023-04-02T16:10:06.946Z,76.85
2023-04-02T16:13:29.238Z,79.79
2023-04-02T16:16:35.060Z,80.93
2023-04-02T16:19:51.909Z,83.17
2023-04-02T16:23:01.433Z,80.43
2023-04-02T16:26:34.369Z,78.78
2023-04-02T16:29:55.361Z,80.59
2023-04-02T16:33:10.510Z,80.92
2023-04-02T16:36:35.001Z,80.68
2023-04-02T16:39:56.899Z,82.30
2023-04-02T16:43:21.711Z,82.20
2023-04-02T16:46:54.594Z,82.21
2023-04-02T16:50:11.685Z,81.78
2023-04-02T16:53:22.269Z,82.81
2023-04-02T16:56:35.514Z,83.73
2023-04-02T16:59:53.625Z,83.50
2023-04-02T17:03:13.686Z,86.33
2023-04-02T17:06:44.033Z,88.18
2023-04-02T17:09:51.638Z,88.13
2023-04-02T17:13:24.171Z,86.53
2023-04-02T17:16:45.625Z,86.07
2023-04-02T17:19:51.282Z,85.37
2023-04-02T17:22:56.468Z,84.84
2023-04-02T17:26:07.248Z,86.50
2023-04-02T17:29:16.266Z,86.00
2023-04-02T17:32:32.154Z,86.59
2023-04-02T17:35:59.901Z,86.45
2023-04-02T17:39:47.409Z,86.61
2023-04-02T17:43:05.354Z,86.28
2023-04-02T17:46:22.946Z,86.23
2023-04-02T17:49:26.290Z,87.62
2023-04-02T17:53:09.517Z,89.12
2023-04-02T17:56:36.541Z,88.89
2023-04-02T18:00:06.232Z,89.10
2023-04-02T18:03:44.198Z,88.52
2023-04-02T18:07:12.251Z,88.44
2023-04-02T18:10:35.686Z,90.09
2023-04-02T18:13:46.098Z,88.47
2023-04-02T18:17:01.630Z,86.13
2023-04-02T18:20:20.400Z,84.76
2023-04-02T18:23:57.160Z,85.78
2023-04-02T18:27:12.416Z,85.28
2023-04-02T18:30:34.639Z,83.89
2023-04-02T18:34:01.187Z,86.29
2023-04-02T18:37:29.677Z,87.06
2023-04-02T18:40:49.936Z,84.12
2023-04-02T18:43:59.237Z,81.99
2023-04-02T18:47:21.818Z,81.36
2023-04-02T18:50:30.281Z,82.36
2023-04-02T18:53:34.177Z,80.89
2023-04-02T18:56:41.361Z,80.70
2023-04-02T18:59:44.953Z,81.03
2023-04-02T19:02:52.085Z,80.29
2023-04-02T19:06:19.843Z,81.04
2023-04-02T19:09:27.516Z,80.91
2023-04-02T19:12:33.877Z,82.42
2023-04-02T19:16:08.792Z,83.08
2023-04-02T19:19:21.941Z,84.50
2023-04-02T19:22:33.528Z,82.39
2023-04-02T19:25:44.577Z,82.04
2023-04-02T19:29:10.356Z,82.29
2023-04-02T19:32:35.040Z,82.33
2023-04-02T19:36:03.488Z,82.44
2023-04-02T19:39:25.401Z,84.80
2023-04-02T19:42:52.688Z,84.50
2023-04-02T19:45:56.224Z,85.91
2023-04-02T19:49:13.233Z,85.84
2023-04-02T19:52:16.755Z,86.39
2023-04-02T19:55:22.388Z,85.67
2023-04-02T19:58:28.893Z,85.12
2023-04-02T20:01:34.143Z,83.56
2023-04-02T20:04:37.591Z,84.41
2023-04-02T20:07:40.388Z,81.45
2023-04-02T20:10:43.724Z,81.72
2023-04-02T20:13:46.549Z,82.03
2023-04-02T20:16:49.479Z,81.83
2023-04-02T20:19:52.372Z,82.29
2023-04-02T20:22:55.674Z,82.82
2023-04-02T20:25:59.520Z,83.44
2023-04-02T20:29:03.170Z,82.40
2023-04-02T20:32:07.522Z,81.96
2023-04-02T20:35:10.492Z,83.94
2023-04-02T20:38:13.416Z,83.74
2023-04-02T20:41:19.357Z,78.76
2023-04-02T20:44:22.313Z,79.62
2023-04-02T20:47:25.624Z,80.95
2023-04-02T20:50:29.040Z,79.87
2023-04-02T20:53:34.497Z,77.77
2023-04-02T20:56:37.268Z,79.22
2023-04-02T20:59:40.336Z,79.32
2023-04-02T21:02:42.983Z,78.45
2023-04-02T21:05:47.109Z,78.38
2023-04-02T21:08:50.091Z,78.22
2023-04-02T21:11:52.963Z,78.75
2023-04-02T21:14:59.740Z,79.44
2023-04-02T21:18:05.828Z,79.90
2023-04-02T21:21:08.624Z,80.62
2023-04-02T21:24:11.713Z,81.30
2023-04-02T21:27:14.235Z,81.54
2023-04-02T21:30:17.432Z,82.21
2023-04-02T21:33:20.018Z,82.33
2023-04-02T21:36:28.058Z,83.45
2023-04-02T21:39:30.883Z,83.47
2023-04-02T21:42:33.642Z,84.20
2023-04-02T21:45:36.550Z,80.16
2023-04-02T21:48:40.720Z,79.80
2023-04-02T21:51:44.475Z,84.39
2023-04-02T21:54:47.344Z,89.25
2023-04-02T21:57:49.870Z,89.89
2023-04-02T22:00:52.711Z,89.87
2023-04-02T22:03:57.145Z,90.21
2023-04-02T22:06:59.805Z,90.27
2023-04-02T22:10:02.968Z,91.71
2023-04-02T22:13:05.476Z,90.93
2023-04-02T22:16:29.247Z,91.68
2023-04-02T22:19:33.057Z,92.85
2023-04-02T22:22:35.908Z,92.88
2023-04-02T22:25:38.487Z,91.56
2023-04-02T22:28:41.639Z,91.62
2023-04-02T22:31:44.790Z,91.90
2023-04-02T22:34:47.621Z,92.11
2023-04-02T22:37:50.197Z,92.14
2023-04-02T22:40:53.065Z,92.11
2023-04-02T22:43:56.633Z,92.17
2023-04-02T22:46:59.438Z,93.25
2023-04-02T22:50:01.990Z,92.54
2023-04-02T22:53:04.973Z,89.97
2023-04-02T22:56:13.642Z,89.71
2023-04-02T22:59:16.814Z,87.58
2023-04-02T23:02:19.417Z,88.89
2023-04-02T23:05:22.675Z,88.95
2023-04-02T23:08:25.340Z,88.77
2023-04-02T23:11:28.332Z,88.30
2023-04-02T23:14:31.015Z,88.64
2023-04-02T23:17:35.906Z,89.08
2023-04-02T23:20:38.597Z,88.78
2023-04-02T23:23:41.600Z,88.73
2023-04-02T23:26:44.158Z,88.28
2023-04-02T23:29:47.086Z,89.48
2023-04-02T23:32:50.078Z,90.10
2023-04-02T23:35:52.913Z,89.15
2023-04-02T23:38:59.682Z,86.14
2023-04-02T23:42:03.087Z,85.40
2023-04-02T23:45:05.989Z,85.00
2023-04-02T23:48:09.252Z,84.48
2023-04-02T23:51:11.937Z,82.65
2023-04-02T23:54:15.084Z,82.23
2023-04-02T23:57:17.927Z,83.29
